Time;durP1;ratioP1;P1;durP2;ratioP2;P2;SDS_P1;SDS_P2;PMS_P1;PMS_P2;Temp;Humidity;BMP_temperature;BMP_pressure;BME280_temperature;BME280_humidity;BME280_pressure;Samples;Min_cycle;Max_cycle;Signal;HPM_P1;HPM_P2
2022/12/27 00:03:53;;;;;;;35.92;15.82;;;;;;;;;;10492007;28;20024;-72
2022/12/27 00:08:54;;;;;;;38.58;17.67;;;;;;;;;;10505731;28;20169;-76
2022/12/27 00:13:57;;;;;;;34.53;16.88;;;;;;;;;;10493850;28;20115;-77
2022/12/27 00:18:57;;;;;;;30.15;14.70;;;;;;;;;;10451045;28;20028;-77
2022/12/27 00:23:58;;;;;;;30.95;15.65;;;;;;;;;;10468086;28;20060;-78
2022/12/27 00:28:59;;;;;;;33.83;15.07;;;;;;;;;;10441826;28;20093;-76
2022/12/27 00:34:00;;;;;;;31.50;15.27;;;;;;;;;;10444933;28;20021;-79
2022/12/27 00:39:01;;;;;;;31.60;15.95;;;;;;;;;;10475509;28;20016;-78
2022/12/27 00:44:01;;;;;;;34.90;16.77;;;;;;;;;;10458759;28;20033;-78
2022/12/27 00:49:01;;;;;;;26.50;13.87;;;;;;;;;;10445816;28;20017;-76
2022/12/27 00:54:02;;;;;;;36.72;13.98;;;;;;;;;;10481501;28;20033;-76
2022/12/27 00:59:03;;;;;;;28.77;14.07;;;;;;;;;;10491277;28;20021;-77
2022/12/27 01:04:04;;;;;;;28.88;13.27;;;;;;;;;;10489152;28;20028;-77
2022/12/27 01:09:04;;;;;;;31.52;14.68;;;;;;;;;;10480505;28;20363;-78
2022/12/27 01:14:04;;;;;;;32.13;16.20;;;;;;;;;;10449761;28;20033;-79
2022/12/27 01:19:05;;;;;;;39.97;15.37;;;;;;;;;;10501070;28;20348;-77
2022/12/27 01:24:06;;;;;;;34.42;17.75;;;;;;;;;;10503626;28;20587;-74
2022/12/27 01:29:06;;;;;;;31.30;16.00;;;;;;;;;;10487242;28;20096;-79
2022/12/27 01:34:06;;;;;;;26.90;13.25;;;;;;;;;;10487570;28;20172;-76
2022/12/27 01:39:07;;;;;;;34.85;15.93;;;;;;;;;;10488435;28;20035;-77
2022/12/27 01:44:27;;;;;;;35.63;13.68;;;;;;;;;;10493226;28;20039;-76
2022/12/27 01:49:28;;;;;;;32.25;14.43;;;;;;;;;;10475547;28;20450;-76
2022/12/27 01:54:28;;;;;;;28.55;14.48;;;;;;;;;;10485827;28;20490;-73
2022/12/27 01:59:28;;;;;;;28.65;14.05;;;;;;;;;;10487152;28;20063;-76
2022/12/27 02:04:30;;;;;;;30.95;15.27;;;;;;;;;;10518147;28;20127;-74
2022/12/27 02:09:37;;;;;;;27.98;14.65;;;;;;;;;;10514445;28;20043;-75
2022/12/27 02:14:40;;;;;;;32.85;16.23;;;;;;;;;;10505519;28;20032;-80
2022/12/27 02:19:40;;;;;;;28.25;14.75;;;;;;;;;;10501997;28;20031;-75
2022/12/27 02:24:41;;;;;;;27.20;13.93;;;;;;;;;;10502325;28;20150;-73
2022/12/27 02:30:00;;;;;;;29.45;15.93;;;;;;;;;;10501100;28;20569;-74
2022/12/27 02:35:06;;;;;;;29.00;14.82;;;;;;;;;;10484709;28;20062;-75
2022/12/27 03:07:28;;;;;;;28.23;12.90;;;;;;;;;;10485355;28;20025;-81
2022/12/27 03:18:01;;;;;;;30.73;14.35;;;;;;;;;;10457180;28;20029;-78
2022/12/27 03:33:45;;;;;;;30.67;16.27;;;;;;;;;;10483671;28;20063;-75
2022/12/27 03:38:57;;;;;;;30.05;14.48;;;;;;;;;;10481945;28;20505;-75
2022/12/27 03:43:57;;;;;;;32.45;14.52;;;;;;;;;;10482643;28;20028;-77
2022/12/27 03:48:57;;;;;;;29.70;14.40;;;;;;;;;;10481496;28;20031;-77
2022/12/27 03:53:59;;;;;;;34.67;17.23;;;;;;;;;;10499942;28;20028;-77
2022/12/27 03:59:01;;;;;;;28.70;15.80;;;;;;;;;;10481436;28;20107;-74
2022/12/27 04:04:01;;;;;;;29.13;15.45;;;;;;;;;;10482800;28;20033;-73
2022/12/27 04:35:36;;;;;;;30.52;14.38;;;;;;;;;;10489962;28;20046;-75
2022/12/27 04:56:33;;;;;;;28.40;14.68;;;;;;;;;;10488845;28;20033;-74
2022/12/27 05:06:52;;;;;;;30.52;15.65;;;;;;;;;;10487620;28;20028;-72
2022/12/27 05:17:13;;;;;;;31.92;14.57;;;;;;;;;;10486564;28;20029;-76
2022/12/27 05:27:32;;;;;;;22.77;13.02;;;;;;;;;;10486469;28;20024;-74
2022/12/27 05:32:32;;;;;;;27.67;13.30;;;;;;;;;;10485861;28;20029;-74
2022/12/27 05:37:32;;;;;;;27.37;12.43;;;;;;;;;;10503052;28;20025;-77
2022/12/27 05:42:33;;;;;;;24.55;12.20;;;;;;;;;;10485041;28;20023;-73
2022/12/27 05:47:34;;;;;;;18.15;10.18;;;;;;;;;;10486465;28;20028;-73
2022/12/27 05:52:35;;;;;;;24.92;10.68;;;;;;;;;;10502074;28;20513;-78
2022/12/27 05:57:35;;;;;;;23.40;11.98;;;;;;;;;;10501094;28;20157;-73
2022/12/27 06:02:36;;;;;;;56.67;28.02;;;;;;;;;;10483075;28;20021;-75
2022/12/27 06:07:36;;;;;;;68.13;33.80;;;;;;;;;;10501382;28;20079;-78
2022/12/27 06:12:37;;;;;;;68.30;34.63;;;;;;;;;;10495514;28;20255;-71
2022/12/27 06:17:37;;;;;;;78.68;35.75;;;;;;;;;;10487614;28;20554;-74
2022/12/27 06:22:37;;;;;;;65.15;32.25;;;;;;;;;;10481224;28;20467;-78
2022/12/27 06:27:38;;;;;;;62.58;26.63;;;;;;;;;;10455263;28;20527;-78
2022/12/27 06:32:38;;;;;;;49.28;24.27;;;;;;;;;;10470794;28;20836;-78
2022/12/27 06:37:38;;;;;;;59.63;24.05;;;;;;;;;;10484011;28;20464;-79
2022/12/27 06:42:38;;;;;;;51.60;23.50;;;;;;;;;;10501055;28;20402;-74
2022/12/27 06:47:39;;;;;;;40.45;19.15;;;;;;;;;;10490669;22;20514;-77
2022/12/27 06:52:39;;;;;;;43.67;22.58;;;;;;;;;;10466825;28;20497;-77
2022/12/27 06:57:40;;;;;;;41.92;22.83;;;;;;;;;;10458082;28;20589;-73
2022/12/27 07:02:40;;;;;;;50.83;25.23;;;;;;;;;;10455767;28;20587;-77
2022/12/27 07:07:40;;;;;;;53.50;24.02;;;;;;;;;;10457237;28;20773;-74
2022/12/27 07:12:41;;;;;;;47.28;24.50;;;;;;;;;;10476361;28;20033;-76
2022/12/27 07:17:41;;;;;;;46.90;21.90;;;;;;;;;;10475163;22;20535;-80
2022/12/27 07:22:41;;;;;;;46.40;22.15;;;;;;;;;;10507259;28;20965;-80
2022/12/27 07:27:41;;;;;;;38.90;19.42;;;;;;;;;;10519740;28;20016;-73
2022/12/27 07:32:42;;;;;;;38.38;21.30;;;;;;;;;;10522642;28;20579;-74
2022/12/27 07:37:42;;;;;;;44.30;20.85;;;;;;;;;;10521100;28;20056;-74
2022/12/27 07:42:42;;;;;;;32.80;18.42;;;;;;;;;;10513737;28;20146;-77
2022/12/27 07:47:43;;;;;;;38.60;18.25;;;;;;;;;;10502375;28;20040;-77
2022/12/27 07:52:43;;;;;;;33.08;17.60;;;;;;;;;;10532846;28;20119;-78
2022/12/27 07:57:43;;;;;;;42.47;18.98;;;;;;;;;;10515771;28;20034;-76
2022/12/27 08:02:45;;;;;;;36.05;17.55;;;;;;;;;;10517066;28;20103;-78
2022/12/27 08:07:46;;;;;;;38.08;18.85;;;;;;;;;;10520294;28;20033;-76
2022/12/27 08:12:46;;;;;;;37.13;17.83;;;;;;;;;;10521946;28;20047;-76
2022/12/27 08:17:46;;;;;;;31.23;16.80;;;;;;;;;;10525392;28;20502;-74
2022/12/27 08:22:46;;;;;;;33.70;17.23;;;;;;;;;;10525449;28;20039;-77
2022/12/27 08:27:47;;;;;;;26.05;14.93;;;;;;;;;;10527731;28;20031;-78
2022/12/27 08:32:49;;;;;;;32.85;15.40;;;;;;;;;;10519068;28;20550;-73
2022/12/27 08:37:49;;;;;;;31.15;15.43;;;;;;;;;;10517337;28;20024;-71
2022/12/27 08:42:51;;;;;;;34.97;17.35;;;;;;;;;;10518053;28;20397;-74
2022/12/27 08:47:51;;;;;;;33.15;17.08;;;;;;;;;;10520676;28;20040;-73
2022/12/27 08:52:55;;;;;;;32.65;15.07;;;;;;;;;;10518037;28;20417;-76
2022/12/27 08:57:56;;;;;;;33.20;16.35;;;;;;;;;;10524903;28;20367;-69
2022/12/27 09:02:57;;;;;;;35.15;17.88;;;;;;;;;;10522753;28;20344;-80
2022/12/27 09:07:58;;;;;;;28.08;15.70;;;;;;;;;;10521926;28;20028;-76
2022/12/27 09:12:58;;;;;;;39.45;16.83;;;;;;;;;;10520079;28;20032;-76
2022/12/27 09:17:58;;;;;;;39.65;17.35;;;;;;;;;;10521433;28;20076;-74
2022/12/27 09:22:59;;;;;;;38.40;17.70;;;;;;;;;;10526577;28;20020;-73
2022/12/27 09:27:59;;;;;;;37.42;17.08;;;;;;;;;;10525106;28;20042;-74
2022/12/27 09:32:59;;;;;;;37.88;16.67;;;;;;;;;;10529538;28;20034;-73
2022/12/27 09:37:59;;;;;;;35.70;14.98;;;;;;;;;;10526377;28;20844;-74
2022/12/27 09:43:11;;;;;;;34.60;13.27;;;;;;;;;;10526976;28;20431;-73
2022/12/27 09:48:19;;;;;;;25.15;12.27;;;;;;;;;;10524774;28;20028;-73
2022/12/27 09:53:21;;;;;;;27.88;11.40;;;;;;;;;;10521453;28;20034;-78
2022/12/27 09:58:29;;;;;;;14.98;8.75;;;;;;;;;;10521835;28;20180;-77
2022/12/27 10:03:29;;;;;;;20.48;9.30;;;;;;;;;;10521853;28;20048;-77
2022/12/27 10:08:41;;;;;;;18.27;8.00;;;;;;;;;;10523160;28;20130;-80
2022/12/27 10:13:44;;;;;;;26.13;12.45;;;;;;;;;;10499505;28;20108;-80
2022/12/27 10:18:50;;;;;;;23.75;10.45;;;;;;;;;;10521456;28;20605;-74
2022/12/27 10:23:57;;;;;;;18.70;8.70;;;;;;;;;;10531360;28;20024;-74
2022/12/27 10:28:59;;;;;;;26.57;9.17;;;;;;;;;;10539908;28;20105;-73
2022/12/27 10:33:59;;;;;;;19.67;9.77;;;;;;;;;;10525946;28;20028;-77
2022/12/27 10:39:01;;;;;;;18.75;8.55;;;;;;;;;;10547009;28;20061;-78
2022/12/27 10:44:09;;;;;;;18.30;8.27;;;;;;;;;;10539476;28;20019;-72
2022/12/27 10:49:27;;;;;;;16.20;8.77;;;;;;;;;;10530955;28;20034;-74
2022/12/27 10:54:28;;;;;;;21.08;9.68;;;;;;;;;;10532082;28;20024;-79
2022/12/27 10:59:29;;;;;;;28.42;12.55;;;;;;;;;;10525548;28;20031;-78
2022/12/27 11:04:29;;;;;;;28.13;12.23;;;;;;;;;;10534676;28;20019;-73
2022/12/27 11:09:30;;;;;;;28.23;14.63;;;;;;;;;;10522757;28;20472;-74
2022/12/27 11:14:30;;;;;;;27.77;15.73;;;;;;;;;;10524093;28;20440;-74
2022/12/27 11:19:30;;;;;;;30.70;14.40;;;;;;;;;;10522257;28;20059;-73
2022/12/27 11:24:31;;;;;;;38.78;19.02;;;;;;;;;;10523075;28;20097;-77
2022/12/27 11:29:31;;;;;;;36.10;20.40;;;;;;;;;;10521501;28;20020;-77
2022/12/27 11:34:35;;;;;;;35.72;17.27;;;;;;;;;;10523284;28;20517;-74
2022/12/27 11:39:36;;;;;;;30.88;14.57;;;;;;;;;;10523595;28;20781;-79
2022/12/27 11:44:38;;;;;;;30.42;14.13;;;;;;;;;;10528284;28;20462;-77
2022/12/27 11:49:49;;;;;;;28.10;14.18;;;;;;;;;;10522739;28;20099;-76
2022/12/27 11:55:09;;;;;;;33.08;16.13;;;;;;;;;;10522950;28;20073;-80
2022/12/27 12:00:27;;;;;;;32.78;14.75;;;;;;;;;;10517307;28;20033;-79
2022/12/27 12:05:30;;;;;;;36.35;16.80;;;;;;;;;;10518227;28;20157;-77
2022/12/27 12:10:31;;;;;;;30.65;16.95;;;;;;;;;;10521711;28;20020;-81
2022/12/27 12:15:49;;;;;;;40.97;19.02;;;;;;;;;;10520339;28;20505;-80
2022/12/27 12:20:53;;;;;;;39.70;18.75;;;;;;;;;;10521895;28;20127;-73
2022/12/27 12:25:56;;;;;;;36.22;19.95;;;;;;;;;;10531033;28;20367;-79
2022/12/27 12:31:10;;;;;;;42.80;22.30;;;;;;;;;;10536898;28;20055;-79
2022/12/27 12:36:29;;;;;;;46.25;22.13;;;;;;;;;;10517317;28;20227;-77
2022/12/27 12:41:40;;;;;;;47.03;23.80;;;;;;;;;;10523459;28;20023;-82
2022/12/27 12:47:03;;;;;;;50.67;23.95;;;;;;;;;;10494942;28;20055;-72
2022/12/27 12:52:16;;;;;;;43.33;22.45;;;;;;;;;;10506118;28;20056;-77
2022/12/27 12:57:23;;;;;;;44.83;22.52;;;;;;;;;;10527388;28;20044;-76
2022/12/27 13:02:35;;;;;;;49.05;22.00;;;;;;;;;;10527602;28;20012;-79
2022/12/27 13:07:40;;;;;;;51.38;24.13;;;;;;;;;;10528823;28;20381;-75
2022/12/27 13:12:49;;;;;;;42.80;21.85;;;;;;;;;;10529574;28;20044;-80
2022/12/27 13:18:01;;;;;;;47.42;22.50;;;;;;;;;;10529231;28;20044;-78
2022/12/27 13:23:20;;;;;;;44.05;20.20;;;;;;;;;;10529977;28;20162;-77
2022/12/27 13:28:23;;;;;;;40.50;18.20;;;;;;;;;;10496756;28;20021;-73
2022/12/27 13:33:47;;;;;;;31.90;15.15;;;;;;;;;;10563612;28;20020;-74
2022/12/27 13:39:06;;;;;;;21.52;10.57;;;;;;;;;;10531694;28;20054;-74
2022/12/27 13:44:06;;;;;;;26.00;9.77;;;;;;;;;;10531855;28;20032;-72
2022/12/27 13:49:25;;;;;;;13.63;6.40;;;;;;;;;;10550982;22;20268;-75
2022/12/27 13:54:25;;;;;;;;;;;;;;;;;;10467049;28;20043;-76
2022/12/27 13:59:35;;;;;;;11.85;4.75;;;;;;;;;;10486845;28;19904;-79
2022/12/27 14:04:38;;;;;;;10.05;4.72;;;;;;;;;;10468659;28;20081;-77
2022/12/27 14:09:50;;;;;;;9.45;5.03;;;;;;;;;;10469763;28;20017;-75
2022/12/27 14:14:53;;;;;;;9.80;4.80;;;;;;;;;;10468900;28;20576;-77
2022/12/27 14:20:06;;;;;;;11.93;5.68;;;;;;;;;;10487422;28;20622;-79
2022/12/27 14:25:06;;;;;;;9.93;4.90;;;;;;;;;;10468588;28;20124;-78
2022/12/27 14:30:06;;;;;;;9.15;4.55;;;;;;;;;;10467902;28;20139;-75
2022/12/27 14:35:19;;;;;;;11.50;5.47;;;;;;;;;;10447915;28;20025;-75
2022/12/27 14:40:37;;;;;;;11.27;6.05;;;;;;;;;;10484752;28;20052;-79
2022/12/27 14:45:38;;;;;;;11.65;4.93;;;;;;;;;;10427667;28;20029;-81
2022/12/27 14:51:01;;;;;;;9.32;4.82;;;;;;;;;;10442597;28;20569;-79
2022/12/27 14:56:22;;;;;;;17.08;5.18;;;;;;;;;;10444498;28;20060;-75
2022/12/27 15:01:41;;;;;;;9.43;5.03;;;;;;;;;;10443942;28;20048;-75
2022/12/27 15:06:42;;;;;;;7.97;4.53;;;;;;;;;;10442901;28;20029;-78
2022/12/27 15:11:42;;;;;;;9.45;4.07;;;;;;;;;;10446603;28;20539;-80
2022/12/27 15:17:02;;;;;;;9.02;4.90;;;;;;;;;;10442624;28;20045;-73
2022/12/27 15:22:09;;;;;;;12.00;5.65;;;;;;;;;;10403576;28;20108;-77
2022/12/27 15:27:16;;;;;;;7.65;4.72;;;;;;;;;;10431929;28;20036;-73
2022/12/27 15:32:28;;;;;;;12.32;5.70;;;;;;;;;;10417115;28;20490;-79
2022/12/27 15:37:44;;;;;;;10.38;4.90;;;;;;;;;;10409100;28;20036;-76
2022/12/27 15:43:02;;;;;;;10.07;4.90;;;;;;;;;;10440206;28;20060;-76
2022/12/27 15:48:12;;;;;;;7.63;4.15;;;;;;;;;;10484262;28;20043;-79
2022/12/27 15:53:27;;;;;;;14.50;4.35;;;;;;;;;;10450823;28;20053;-73
2022/12/27 15:58:28;;;;;;;6.07;3.00;;;;;;;;;;10437703;28;20047;-77
2022/12/27 16:03:28;;;;;;;5.33;2.10;;;;;;;;;;10450402;28;20033;-81
2022/12/27 16:08:42;;;;;;;10.15;3.13;;;;;;;;;;10427405;28;20798;-75
2022/12/27 16:13:44;;;;;;;4.10;2.30;;;;;;;;;;10423044;28;20029;-73
2022/12/27 16:18:54;;;;;;;8.30;4.05;;;;;;;;;;10411701;28;20112;-73
2022/12/27 16:24:00;;;;;;;7.88;2.90;;;;;;;;;;10419033;28;20498;-76
2022/12/27 16:29:03;;;;;;;7.72;2.70;;;;;;;;;;10436850;28;20442;-74
2022/12/27 16:34:23;;;;;;;5.32;2.38;;;;;;;;;;10433649;28;20406;-74
2022/12/27 16:39:34;;;;;;;8.02;2.85;;;;;;;;;;10432052;28;20481;-77
2022/12/27 16:44:45;;;;;;;12.45;2.55;;;;;;;;;;10432815;28;20036;-75
2022/12/27 16:49:54;;;;;;;9.13;2.78;;;;;;;;;;10437013;28;20650;-73
2022/12/27 16:54:54;;;;;;;;;;;;;;;;;;10428894;28;20041;-77
2022/12/27 17:00:00;;;;;;;8.35;2.50;;;;;;;;;;10423622;28;19915;-75
2022/12/27 17:05:00;;;;;;;7.60;2.40;;;;;;;;;;10432882;28;20483;-76
2022/12/27 17:10:19;;;;;;;7.83;3.60;;;;;;;;;;10426017;28;20124;-78
2022/12/27 17:15:20;;;;;;;5.20;2.80;;;;;;;;;;10417611;28;20291;-73
2022/12/27 17:20:22;;;;;;;8.05;3.95;;;;;;;;;;10432601;28;20104;-81
2022/12/27 17:25:28;;;;;;;8.95;3.38;;;;;;;;;;10414273;28;20031;-74
2022/12/27 17:30:29;;;;;;;11.05;3.85;;;;;;;;;;10434456;28;20024;-75
2022/12/27 17:35:48;;;;;;;6.18;2.95;;;;;;;;;;10423333;28;20025;-74
2022/12/27 17:41:00;;;;;;;5.35;2.67;;;;;;;;;;10419576;28;20133;-79
2022/12/27 17:46:19;;;;;;;7.07;2.63;;;;;;;;;;10430315;28;20056;-76
2022/12/27 17:51:24;;;;;;;4.70;2.80;;;;;;;;;;10410657;28;20049;-76
2022/12/27 18:02:05;;;;;;;8.23;3.08;;;;;;;;;;10366276;28;20045;-75
2022/12/27 18:07:07;;;;;;;7.38;2.47;;;;;;;;;;10417072;28;20075;-76
2022/12/27 18:12:17;;;;;;;8.38;3.20;;;;;;;;;;10435931;28;20064;-77
2022/12/27 18:17:26;;;;;;;8.07;3.38;;;;;;;;;;10425413;28;20044;-73
2022/12/27 18:22:26;;;;;;;15.90;4.45;;;;;;;;;;10427269;28;20056;-77
2022/12/27 18:27:27;;;;;;;6.88;3.83;;;;;;;;;;10418980;28;20118;-77
2022/12/27 18:32:27;;;;;;;4.88;3.03;;;;;;;;;;10428961;28;20036;-73
2022/12/27 18:37:29;;;;;;;7.57;2.70;;;;;;;;;;10409986;28;20098;-78
2022/12/27 18:42:33;;;;;;;8.48;2.25;;;;;;;;;;10431534;28;20282;-77
2022/12/27 18:47:38;;;;;;;10.10;2.15;;;;;;;;;;10438427;28;20048;-80
2022/12/27 18:52:39;;;;;;;4.65;2.97;;;;;;;;;;10426712;28;20491;-75
2022/12/27 18:57:39;;;;;;;6.47;3.33;;;;;;;;;;10432278;28;20039;-76
2022/12/27 19:02:40;;;;;;;7.75;2.58;;;;;;;;;;10425471;28;20021;-76
2022/12/27 19:07:41;;;;;;;4.70;2.42;;;;;;;;;;10425390;28;20029;-74
2022/12/27 19:12:41;;;;;;;4.70;2.35;;;;;;;;;;10413754;28;20029;-75
2022/12/27 19:17:44;;;;;;;7.33;3.07;;;;;;;;;;10423696;28;20479;-76
2022/12/27 19:22:44;;;;;;;6.25;3.08;;;;;;;;;;10404699;28;20275;-78
2022/12/27 19:28:02;;;;;;;6.80;2.38;;;;;;;;;;10423805;28;20037;-77
2022/12/27 19:33:12;;;;;;;5.90;2.97;;;;;;;;;;10430793;28;20028;-78
2022/12/27 19:38:18;;;;;;;3.88;2.42;;;;;;;;;;10417103;28;20033;-78
2022/12/27 19:43:19;;;;;;;7.22;2.90;;;;;;;;;;10430437;28;20474;-78
2022/12/27 19:48:20;;;;;;;4.20;2.35;;;;;;;;;;10416391;28;20045;-77
2022/12/27 19:53:32;;;;;;;6.80;3.00;;;;;;;;;;10429974;28;20041;-78
2022/12/27 19:58:32;;;;;;;9.18;3.05;;;;;;;;;;10429087;28;20059;-77
2022/12/27 20:03:34;;;;;;;9.43;3.50;;;;;;;;;;10457470;28;20068;-78
2022/12/27 20:08:39;;;;;;;6.57;3.30;;;;;;;;;;10446322;28;20029;-76
2022/12/27 20:13:39;;;;;;;4.75;2.80;;;;;;;;;;10447160;28;20128;-76
2022/12/27 20:18:40;;;;;;;4.70;2.50;;;;;;;;;;10437144;28;20148;-75
2022/12/27 20:23:40;;;;;;;5.05;2.90;;;;;;;;;;10429911;28;20021;-74
2022/12/27 20:28:40;;;;;;;7.00;3.10;;;;;;;;;;10409477;28;20506;-74
2022/12/27 20:33:41;;;;;;;7.57;3.38;;;;;;;;;;10429475;28;20029;-75
2022/12/27 20:38:41;;;;;;;4.63;2.50;;;;;;;;;;10418033;28;20040;-78
2022/12/27 20:43:42;;;;;;;5.85;2.92;;;;;;;;;;10425983;28;20071;-78
2022/12/27 20:48:44;;;;;;;5.70;3.25;;;;;;;;;;10400510;28;20049;-75
2022/12/27 20:53:45;;;;;;;6.28;3.80;;;;;;;;;;10433709;28;20052;-73
2022/12/27 20:58:45;;;;;;;4.43;2.85;;;;;;;;;;10480244;28;20032;-79
2022/12/27 21:03:46;;;;;;;9.45;4.30;;;;;;;;;;10449551;28;20422;-77
2022/12/27 21:08:47;;;;;;;6.00;3.85;;;;;;;;;;10423237;28;20445;-73
2022/12/27 21:13:49;;;;;;;6.68;4.05;;;;;;;;;;10429740;28;20024;-77
2022/12/27 21:18:49;;;;;;;6.13;3.67;;;;;;;;;;10425631;28;20493;-77
2022/12/27 21:23:50;;;;;;;8.70;4.10;;;;;;;;;;10451267;22;20051;-76
2022/12/27 21:28:50;;;;;;;10.65;4.70;;;;;;;;;;10461137;28;20025;-79
2022/12/27 21:33:50;;;;;;;5.97;4.30;;;;;;;;;;10456185;28;20024;-76
2022/12/27 21:38:51;;;;;;;7.65;4.35;;;;;;;;;;10471001;28;20024;-73
2022/12/27 21:43:51;;;;;;;8.55;4.82;;;;;;;;;;10471183;28;20024;-77
2022/12/27 21:48:53;;;;;;;10.93;4.67;;;;;;;;;;10450428;28;20028;-74
2022/12/27 21:53:53;;;;;;;11.40;5.68;;;;;;;;;;10447464;28;20031;-75
2022/12/27 21:58:56;;;;;;;9.38;5.90;;;;;;;;;;10443687;28;20432;-76
2022/12/27 22:03:57;;;;;;;14.00;5.72;;;;;;;;;;10437009;28;20029;-72
2022/12/27 22:08:59;;;;;;;9.30;5.03;;;;;;;;;;10441035;28;20025;-74
2022/12/27 22:13:59;;;;;;;13.77;6.18;;;;;;;;;;10438006;28;20032;-74
2022/12/27 22:19:00;;;;;;;11.18;5.68;;;;;;;;;;10434235;28;20021;-75
2022/12/27 22:24:00;;;;;;;12.50;6.63;;;;;;;;;;10426269;28;20148;-74
2022/12/27 22:29:01;;;;;;;12.93;6.63;;;;;;;;;;10445864;28;20320;-79
2022/12/27 22:34:02;;;;;;;11.98;6.80;;;;;;;;;;10445736;28;20021;-78
2022/12/27 22:39:02;;;;;;;11.80;6.32;;;;;;;;;;10445071;28;20062;-77
2022/12/27 22:44:06;;;;;;;10.70;5.75;;;;;;;;;;10427281;28;20167;-78
2022/12/27 22:49:07;;;;;;;15.13;7.10;;;;;;;;;;10445181;28;20407;-74
2022/12/27 22:54:07;;;;;;;10.52;6.18;;;;;;;;;;10426344;28;20017;-78
2022/12/27 22:59:08;;;;;;;13.32;6.25;;;;;;;;;;10426688;28;20403;-73
2022/12/27 23:04:10;;;;;;;9.52;6.40;;;;;;;;;;10444379;28;20028;-77
2022/12/27 23:09:10;;;;;;;11.60;7.25;;;;;;;;;;10425631;28;20056;-73
2022/12/27 23:14:12;;;;;;;12.18;7.00;;;;;;;;;;10425949;28;20581;-74
2022/12/27 23:19:14;;;;;;;13.00;7.40;;;;;;;;;;10426020;28;20048;-73
2022/12/27 23:24:14;;;;;;;12.00;7.20;;;;;;;;;;10424628;28;20063;-81
2022/12/27 23:29:15;;;;;;;14.35;7.60;;;;;;;;;;10442043;28;20403;-81
2022/12/27 23:34:15;;;;;;;17.45;7.95;;;;;;;;;;10424931;28;20033;-73
2022/12/27 23:39:18;;;;;;;14.70;7.60;;;;;;;;;;10424831;28;20032;-80
2022/12/27 23:44:18;;;;;;;13.18;8.13;;;;;;;;;;10425073;28;20063;-77
2022/12/27 23:49:19;;;;;;;17.63;7.20;;;;;;;;;;10425573;28;20479;-77
2022/12/27 23:54:19;;;;;;;11.93;7.10;;;;;;;;;;10423880;28;20475;-82
2022/12/27 23:59:19;;;;;;;12.75;7.18;;;;;;;;;;10424590;28;20025;-76
